Wargrave, United Kingdom
Current Conditions -  °F | °C
As of 11:50 AM on Friday 19 Dec 2014 (Local Time) from EGUB Reporting Station
Few Clouds Few Clouds  
Wind Chill: 43°   Ceiling: Unl
Heat Index: 48°   Visibility: 6mi
Dew Point: 36°   Wind: 13mph
Humidity: 62%   Direction: 260°W
Pressure: 30"   Gusts: NA
Location:  51.5°N, 0.87°W
Report Text: EGUB 191150Z 26011KT 9999 FEW026 09/02 Q1016 BLU NOSIG
Loading
Personal Weather Stations






























Interactive Weather Map New forecast layout! Learn more

10-Day Weather Forecast

Advertisements
Track Severe Weather on mobile